sensor_id;sensor_type;location;lat;lon;timestamp;P1;durP1;ratioP1;P2;durP2;ratioP2
18505;SDS011;9382;53.242;10.438;2023-03-14T00:00:05;3.03;;;2.00;;
18505;SDS011;9382;53.242;10.438;2023-03-14T00:02:34;3.67;;;2.00;;
18505;SDS011;9382;53.242;10.438;2023-03-14T00:05:01;3.40;;;2.30;;
18505;SDS011;9382;53.242;10.438;2023-03-14T00:07:31;3.27;;;2.20;;
18505;SDS011;9382;53.242;10.438;2023-03-14T00:10:00;3.37;;;2.30;;
18505;SDS011;9382;53.242;10.438;2023-03-14T00:12:27;3.90;;;2.20;;
18505;SDS011;9382;53.242;10.438;2023-03-14T00:14:55;3.27;;;2.10;;
18505;SDS011;9382;53.242;10.438;2023-03-14T00:17:22;5.37;;;2.23;;
18505;SDS011;9382;53.242;10.438;2023-03-14T00:19:48;5.20;;;2.20;;
18505;SDS011;9382;53.242;10.438;2023-03-14T00:22:18;3.90;;;2.20;;
18505;SDS011;9382;53.242;10.438;2023-03-14T00:24:45;4.47;;;2.20;;
18505;SDS011;9382;53.242;10.438;2023-03-14T00:27:12;4.30;;;2.37;;
18505;SDS011;9382;53.242;10.438;2023-03-14T00:29:39;5.70;;;2.10;;
18505;SDS011;9382;53.242;10.438;2023-03-14T00:32:07;5.50;;;2.60;;
18505;SDS011;9382;53.242;10.438;2023-03-14T00:34:33;4.37;;;2.10;;
18505;SDS011;9382;53.242;10.438;2023-03-14T00:37:00;4.40;;;2.23;;
18505;SDS011;9382;53.242;10.438;2023-03-14T00:39:27;3.30;;;2.10;;
18505;SDS011;9382;53.242;10.438;2023-03-14T00:41:53;4.83;;;2.47;;
18505;SDS011;9382;53.242;10.438;2023-03-14T00:44:20;3.10;;;2.30;;
18505;SDS011;9382;53.242;10.438;2023-03-14T00:46:47;3.43;;;2.20;;
18505;SDS011;9382;53.242;10.438;2023-03-14T00:49:15;2.63;;;2.20;;
18505;SDS011;9382;53.242;10.438;2023-03-14T00:51:41;3.83;;;2.20;;
18505;SDS011;9382;53.242;10.438;2023-03-14T00:54:08;3.53;;;2.40;;
18505;SDS011;9382;53.242;10.438;2023-03-14T00:56:34;4.70;;;2.17;;
18505;SDS011;9382;53.242;10.438;2023-03-14T00:59:01;4.30;;;2.23;;
18505;SDS011;9382;53.242;10.438;2023-03-14T01:01:28;4.17;;;2.20;;
18505;SDS011;9382;53.242;10.438;2023-03-14T01:03:55;4.03;;;2.30;;
18505;SDS011;9382;53.242;10.438;2023-03-14T01:06:24;3.80;;;2.33;;
18505;SDS011;9382;53.242;10.438;2023-03-14T01:08:52;4.43;;;2.20;;
18505;SDS011;9382;53.242;10.438;2023-03-14T01:11:19;5.33;;;2.57;;
18505;SDS011;9382;53.242;10.438;2023-03-14T01:13:47;4.00;;;2.00;;
18505;SDS011;9382;53.242;10.438;2023-03-14T01:16:14;5.93;;;2.60;;
18505;SDS011;9382;53.242;10.438;2023-03-14T01:18:42;3.77;;;2.50;;
18505;SDS011;9382;53.242;10.438;2023-03-14T01:21:11;5.07;;;2.60;;
18505;SDS011;9382;53.242;10.438;2023-03-14T01:23:41;4.73;;;2.43;;
18505;SDS011;9382;53.242;10.438;2023-03-14T01:26:08;3.00;;;2.10;;
18505;SDS011;9382;53.242;10.438;2023-03-14T01:28:36;4.93;;;2.30;;
18505;SDS011;9382;53.242;10.438;2023-03-14T01:31:03;4.57;;;2.13;;
18505;SDS011;9382;53.242;10.438;2023-03-14T01:33:30;4.40;;;2.60;;
18505;SDS011;9382;53.242;10.438;2023-03-14T01:35:57;4.77;;;2.67;;
18505;SDS011;9382;53.242;10.438;2023-03-14T01:38:23;3.90;;;2.20;;
18505;SDS011;9382;53.242;10.438;2023-03-14T01:40:52;7.40;;;2.30;;
18505;SDS011;9382;53.242;10.438;2023-03-14T01:43:19;5.27;;;2.67;;
18505;SDS011;9382;53.242;10.438;2023-03-14T01:46:12;4.87;;;2.50;;
18505;SDS011;9382;53.242;10.438;2023-03-14T01:48:50;5.53;;;2.37;;
18505;SDS011;9382;53.242;10.438;2023-03-14T01:51:24;5.03;;;2.27;;
18505;SDS011;9382;53.242;10.438;2023-03-14T01:53:55;8.83;;;2.73;;
18505;SDS011;9382;53.242;10.438;2023-03-14T01:56:31;5.20;;;2.47;;
18505;SDS011;9382;53.242;10.438;2023-03-14T01:58:58;5.83;;;2.70;;
18505;SDS011;9382;53.242;10.438;2023-03-14T02:01:27;3.23;;;2.30;;
18505;SDS011;9382;53.242;10.438;2023-03-14T02:03:56;5.73;;;2.80;;
18505;SDS011;9382;53.242;10.438;2023-03-14T02:06:26;4.57;;;2.73;;
18505;SDS011;9382;53.242;10.438;2023-03-14T02:09:00;4.63;;;2.60;;
18505;SDS011;9382;53.242;10.438;2023-03-14T02:11:28;11.07;;;2.70;;
18505;SDS011;9382;53.242;10.438;2023-03-14T02:13:57;6.77;;;2.90;;
18505;SDS011;9382;53.242;10.438;2023-03-14T02:16:25;3.50;;;2.83;;
18505;SDS011;9382;53.242;10.438;2023-03-14T02:18:51;4.77;;;2.90;;
18505;SDS011;9382;53.242;10.438;2023-03-14T02:21:20;10.20;;;3.27;;
18505;SDS011;9382;53.242;10.438;2023-03-14T02:23:53;7.33;;;3.30;;
18505;SDS011;9382;53.242;10.438;2023-03-14T02:26:30;8.20;;;2.67;;
18505;SDS011;9382;53.242;10.438;2023-03-14T02:29:04;8.80;;;3.37;;
18505;SDS011;9382;53.242;10.438;2023-03-14T02:31:30;8.40;;;3.33;;
18505;SDS011;9382;53.242;10.438;2023-03-14T02:33:58;8.63;;;3.13;;
18505;SDS011;9382;53.242;10.438;2023-03-14T02:36:26;6.97;;;2.93;;
18505;SDS011;9382;53.242;10.438;2023-03-14T02:38:55;5.77;;;2.60;;
18505;SDS011;9382;53.242;10.438;2023-03-14T02:41:29;5.60;;;3.37;;
18505;SDS011;9382;53.242;10.438;2023-03-14T02:43:56;9.03;;;3.30;;
18505;SDS011;9382;53.242;10.438;2023-03-14T02:46:24;6.80;;;3.13;;
18505;SDS011;9382;53.242;10.438;2023-03-14T02:48:51;9.87;;;3.20;;
18505;SDS011;9382;53.242;10.438;2023-03-14T02:51:21;4.30;;;2.93;;
18505;SDS011;9382;53.242;10.438;2023-03-14T02:53:49;6.93;;;2.93;;
18505;SDS011;9382;53.242;10.438;2023-03-14T02:56:16;8.90;;;2.80;;
18505;SDS011;9382;53.242;10.438;2023-03-14T02:58:43;8.27;;;3.30;;
18505;SDS011;9382;53.242;10.438;2023-03-14T03:01:09;8.67;;;3.20;;
18505;SDS011;9382;53.242;10.438;2023-03-14T03:03:38;9.87;;;3.10;;
18505;SDS011;9382;53.242;10.438;2023-03-14T03:06:05;6.80;;;2.80;;
18505;SDS011;9382;53.242;10.438;2023-03-14T03:08:32;6.90;;;3.00;;
18505;SDS011;9382;53.242;10.438;2023-03-14T03:10:59;5.30;;;2.90;;
18505;SDS011;9382;53.242;10.438;2023-03-14T03:13:26;6.50;;;2.73;;
18505;SDS011;9382;53.242;10.438;2023-03-14T03:15:53;8.80;;;3.00;;
18505;SDS011;9382;53.242;10.438;2023-03-14T03:18:20;8.80;;;2.83;;
18505;SDS011;9382;53.242;10.438;2023-03-14T03:20:48;5.33;;;2.70;;
18505;SDS011;9382;53.242;10.438;2023-03-14T03:23:15;6.23;;;2.63;;
18505;SDS011;9382;53.242;10.438;2023-03-14T03:25:42;6.13;;;2.43;;
18505;SDS011;9382;53.242;10.438;2023-03-14T03:28:13;6.63;;;2.80;;
18505;SDS011;9382;53.242;10.438;2023-03-14T03:30:40;4.43;;;2.50;;
18505;SDS011;9382;53.242;10.438;2023-03-14T03:33:08;9.40;;;2.97;;
18505;SDS011;9382;53.242;10.438;2023-03-14T03:35:40;7.97;;;2.90;;
18505;SDS011;9382;53.242;10.438;2023-03-14T03:38:09;4.80;;;2.30;;
18505;SDS011;9382;53.242;10.438;2023-03-14T03:40:36;6.07;;;2.40;;
18505;SDS011;9382;53.242;10.438;2023-03-14T03:43:04;5.40;;;2.60;;
18505;SDS011;9382;53.242;10.438;2023-03-14T03:45:30;4.40;;;2.60;;
18505;SDS011;9382;53.242;10.438;2023-03-14T03:47:57;8.00;;;2.60;;
18505;SDS011;9382;53.242;10.438;2023-03-14T03:50:24;5.60;;;3.00;;
18505;SDS011;9382;53.242;10.438;2023-03-14T03:52:51;7.63;;;3.07;;
18505;SDS011;9382;53.242;10.438;2023-03-14T03:55:19;5.70;;;2.57;;
18505;SDS011;9382;53.242;10.438;2023-03-14T03:57:45;8.03;;;3.00;;
18505;SDS011;9382;53.242;10.438;2023-03-14T04:00:12;5.47;;;2.60;;
18505;SDS011;9382;53.242;10.438;2023-03-14T04:02:39;4.73;;;2.77;;
18505;SDS011;9382;53.242;10.438;2023-03-14T04:05:06;6.23;;;2.83;;
18505;SDS011;9382;53.242;10.438;2023-03-14T04:07:34;5.93;;;2.40;;
18505;SDS011;9382;53.242;10.438;2023-03-14T04:10:00;6.30;;;2.70;;
18505;SDS011;9382;53.242;10.438;2023-03-14T04:12:29;6.03;;;2.10;;
18505;SDS011;9382;53.242;10.438;2023-03-14T04:14:55;6.40;;;2.57;;
18505;SDS011;9382;53.242;10.438;2023-03-14T04:17:22;5.77;;;2.43;;
18505;SDS011;9382;53.242;10.438;2023-03-14T04:19:49;7.70;;;2.30;;
18505;SDS011;9382;53.242;10.438;2023-03-14T04:22:19;6.30;;;2.37;;
18505;SDS011;9382;53.242;10.438;2023-03-14T04:24:45;6.90;;;2.43;;
18505;SDS011;9382;53.242;10.438;2023-03-14T04:27:12;5.17;;;2.40;;
18505;SDS011;9382;53.242;10.438;2023-03-14T04:29:41;6.17;;;2.20;;
18505;SDS011;9382;53.242;10.438;2023-03-14T04:32:08;9.03;;;2.40;;
18505;SDS011;9382;53.242;10.438;2023-03-14T04:34:35;4.90;;;2.50;;
18505;SDS011;9382;53.242;10.438;2023-03-14T04:37:01;8.13;;;2.30;;
18505;SDS011;9382;53.242;10.438;2023-03-14T04:39:28;5.13;;;2.13;;
18505;SDS011;9382;53.242;10.438;2023-03-14T04:41:55;7.17;;;2.40;;
18505;SDS011;9382;53.242;10.438;2023-03-14T04:44:22;7.20;;;2.57;;
18505;SDS011;9382;53.242;10.438;2023-03-14T04:46:50;8.03;;;2.20;;
18505;SDS011;9382;53.242;10.438;2023-03-14T04:49:17;8.83;;;2.40;;
18505;SDS011;9382;53.242;10.438;2023-03-14T04:51:43;10.93;;;2.37;;
18505;SDS011;9382;53.242;10.438;2023-03-14T04:54:10;13.00;;;2.33;;
18505;SDS011;9382;53.242;10.438;2023-03-14T04:56:37;5.90;;;2.00;;
18505;SDS011;9382;53.242;10.438;2023-03-14T04:59:04;4.80;;;2.10;;
18505;SDS011;9382;53.242;10.438;2023-03-14T05:01:31;7.53;;;2.70;;
18505;SDS011;9382;53.242;10.438;2023-03-14T05:03:59;8.33;;;2.17;;
18505;SDS011;9382;53.242;10.438;2023-03-14T05:06:26;4.43;;;2.00;;
18505;SDS011;9382;53.242;10.438;2023-03-14T05:08:52;7.53;;;2.60;;
18505;SDS011;9382;53.242;10.438;2023-03-14T05:11:19;5.97;;;2.10;;
18505;SDS011;9382;53.242;10.438;2023-03-14T05:13:46;6.27;;;2.10;;
18505;SDS011;9382;53.242;10.438;2023-03-14T05:16:13;4.53;;;1.80;;
18505;SDS011;9382;53.242;10.438;2023-03-14T05:18:39;7.43;;;2.03;;
18505;SDS011;9382;53.242;10.438;2023-03-14T05:21:07;6.23;;;2.07;;
18505;SDS011;9382;53.242;10.438;2023-03-14T05:23:34;4.70;;;2.20;;
18505;SDS011;9382;53.242;10.438;2023-03-14T05:26:01;5.73;;;1.87;;
18505;SDS011;9382;53.242;10.438;2023-03-14T05:28:27;3.27;;;1.80;;
18505;SDS011;9382;53.242;10.438;2023-03-14T05:30:54;2.30;;;1.90;;
18505;SDS011;9382;53.242;10.438;2023-03-14T05:33:21;3.43;;;1.83;;
18505;SDS011;9382;53.242;10.438;2023-03-14T05:35:48;6.40;;;1.80;;
18505;SDS011;9382;53.242;10.438;2023-03-14T05:38:16;2.93;;;1.97;;
18505;SDS011;9382;53.242;10.438;2023-03-14T05:40:44;9.50;;;2.50;;
18505;SDS011;9382;53.242;10.438;2023-03-14T05:43:11;5.33;;;2.00;;
18505;SDS011;9382;53.242;10.438;2023-03-14T05:45:38;5.87;;;2.50;;
18505;SDS011;9382;53.242;10.438;2023-03-14T05:48:05;4.27;;;2.13;;
18505;SDS011;9382;53.242;10.438;2023-03-14T05:50:32;4.90;;;2.30;;
18505;SDS011;9382;53.242;10.438;2023-03-14T05:52:58;4.57;;;2.10;;
18505;SDS011;9382;53.242;10.438;2023-03-14T05:55:26;3.50;;;1.70;;
18505;SDS011;9382;53.242;10.438;2023-03-14T05:57:53;2.73;;;1.90;;
18505;SDS011;9382;53.242;10.438;2023-03-14T06:00:21;3.53;;;1.90;;
18505;SDS011;9382;53.242;10.438;2023-03-14T06:02:48;3.17;;;2.07;;
18505;SDS011;9382;53.242;10.438;2023-03-14T06:05:15;3.67;;;1.70;;
18505;SDS011;9382;53.242;10.438;2023-03-14T06:07:42;3.73;;;1.90;;
18505;SDS011;9382;53.242;10.438;2023-03-14T06:10:09;5.67;;;2.23;;
18505;SDS011;9382;53.242;10.438;2023-03-14T06:12:37;4.73;;;2.20;;
18505;SDS011;9382;53.242;10.438;2023-03-14T06:15:05;4.33;;;2.20;;
18505;SDS011;9382;53.242;10.438;2023-03-14T06:17:32;5.67;;;2.33;;
18505;SDS011;9382;53.242;10.438;2023-03-14T06:19:59;8.67;;;2.20;;
18505;SDS011;9382;53.242;10.438;2023-03-14T06:22:26;3.97;;;2.30;;
18505;SDS011;9382;53.242;10.438;2023-03-14T06:24:52;5.10;;;2.20;;
18505;SDS011;9382;53.242;10.438;2023-03-14T06:27:19;4.70;;;1.90;;
18505;SDS011;9382;53.242;10.438;2023-03-14T06:29:47;3.83;;;2.00;;
18505;SDS011;9382;53.242;10.438;2023-03-14T06:32:14;4.63;;;2.10;;
18505;SDS011;9382;53.242;10.438;2023-03-14T06:34:40;4.80;;;2.10;;
18505;SDS011;9382;53.242;10.438;2023-03-14T06:37:07;3.23;;;2.17;;
18505;SDS011;9382;53.242;10.438;2023-03-14T06:39:34;2.27;;;2.00;;
18505;SDS011;9382;53.242;10.438;2023-03-14T06:42:01;4.03;;;2.20;;
18505;SDS011;9382;53.242;10.438;2023-03-14T06:44:27;5.17;;;1.90;;
18505;SDS011;9382;53.242;10.438;2023-03-14T06:46:56;7.03;;;2.27;;
18505;SDS011;9382;53.242;10.438;2023-03-14T06:49:22;4.23;;;1.90;;
18505;SDS011;9382;53.242;10.438;2023-03-14T06:51:49;3.27;;;2.03;;
18505;SDS011;9382;53.242;10.438;2023-03-14T06:54:18;4.30;;;2.10;;
18505;SDS011;9382;53.242;10.438;2023-03-14T06:56:45;5.40;;;2.37;;
18505;SDS011;9382;53.242;10.438;2023-03-14T06:59:12;5.37;;;2.33;;
18505;SDS011;9382;53.242;10.438;2023-03-14T07:01:39;4.20;;;2.20;;
18505;SDS011;9382;53.242;10.438;2023-03-14T07:04:09;4.10;;;2.40;;
18505;SDS011;9382;53.242;10.438;2023-03-14T07:06:36;6.77;;;2.33;;
18505;SDS011;9382;53.242;10.438;2023-03-14T07:09:04;3.73;;;2.07;;
18505;SDS011;9382;53.242;10.438;2023-03-14T07:11:31;6.20;;;2.60;;
18505;SDS011;9382;53.242;10.438;2023-03-14T07:13:58;7.87;;;2.33;;
18505;SDS011;9382;53.242;10.438;2023-03-14T07:16:24;4.50;;;2.10;;
18505;SDS011;9382;53.242;10.438;2023-03-14T07:18:53;4.77;;;2.50;;
18505;SDS011;9382;53.242;10.438;2023-03-14T07:21:21;5.60;;;2.50;;
18505;SDS011;9382;53.242;10.438;2023-03-14T07:23:48;8.27;;;2.83;;
18505;SDS011;9382;53.242;10.438;2023-03-14T07:26:15;7.33;;;2.83;;
18505;SDS011;9382;53.242;10.438;2023-03-14T07:28:42;7.87;;;2.97;;
18505;SDS011;9382;53.242;10.438;2023-03-14T07:31:08;4.87;;;3.27;;
18505;SDS011;9382;53.242;10.438;2023-03-14T07:33:35;6.07;;;3.50;;
18505;SDS011;9382;53.242;10.438;2023-03-14T07:36:02;12.90;;;3.37;;
18505;SDS011;9382;53.242;10.438;2023-03-14T07:38:31;9.33;;;3.50;;
18505;SDS011;9382;53.242;10.438;2023-03-14T07:40:58;7.93;;;3.60;;
18505;SDS011;9382;53.242;10.438;2023-03-14T07:43:25;6.67;;;3.30;;
18505;SDS011;9382;53.242;10.438;2023-03-14T07:45:52;6.37;;;3.90;;
18505;SDS011;9382;53.242;10.438;2023-03-14T07:48:19;9.70;;;3.60;;
18505;SDS011;9382;53.242;10.438;2023-03-14T07:50:48;6.57;;;3.57;;
18505;SDS011;9382;53.242;10.438;2023-03-14T07:53:16;7.50;;;3.17;;
18505;SDS011;9382;53.242;10.438;2023-03-14T07:55:45;4.93;;;3.00;;
18505;SDS011;9382;53.242;10.438;2023-03-14T07:58:12;7.47;;;3.40;;
18505;SDS011;9382;53.242;10.438;2023-03-14T08:00:40;4.57;;;3.00;;
18505;SDS011;9382;53.242;10.438;2023-03-14T08:03:06;5.50;;;3.10;;
18505;SDS011;9382;53.242;10.438;2023-03-14T08:05:34;8.30;;;3.13;;
18505;SDS011;9382;53.242;10.438;2023-03-14T08:08:01;8.57;;;3.53;;
18505;SDS011;9382;53.242;10.438;2023-03-14T08:10:28;7.67;;;3.20;;
18505;SDS011;9382;53.242;10.438;2023-03-14T08:12:57;7.90;;;4.17;;
18505;SDS011;9382;53.242;10.438;2023-03-14T08:15:25;6.63;;;3.43;;
18505;SDS011;9382;53.242;10.438;2023-03-14T08:17:52;5.73;;;3.63;;
18505;SDS011;9382;53.242;10.438;2023-03-14T08:20:19;10.30;;;3.40;;
18505;SDS011;9382;53.242;10.438;2023-03-14T08:22:47;7.13;;;3.67;;
18505;SDS011;9382;53.242;10.438;2023-03-14T08:25:13;5.97;;;3.50;;
18505;SDS011;9382;53.242;10.438;2023-03-14T08:27:41;7.27;;;3.47;;
18505;SDS011;9382;53.242;10.438;2023-03-14T08:30:10;8.57;;;3.57;;
18505;SDS011;9382;53.242;10.438;2023-03-14T08:32:38;7.93;;;3.60;;
18505;SDS011;9382;53.242;10.438;2023-03-14T08:35:05;7.93;;;3.70;;
18505;SDS011;9382;53.242;10.438;2023-03-14T08:37:33;7.70;;;3.53;;
18505;SDS011;9382;53.242;10.438;2023-03-14T08:40:01;8.30;;;3.13;;
18505;SDS011;9382;53.242;10.438;2023-03-14T08:42:31;8.00;;;3.20;;
18505;SDS011;9382;53.242;10.438;2023-03-14T08:44:58;7.03;;;3.40;;
18505;SDS011;9382;53.242;10.438;2023-03-14T08:47:26;7.80;;;3.23;;
18505;SDS011;9382;53.242;10.438;2023-03-14T08:49:53;6.37;;;3.40;;
18505;SDS011;9382;53.242;10.438;2023-03-14T08:52:19;4.37;;;3.03;;
18505;SDS011;9382;53.242;10.438;2023-03-14T08:54:46;4.13;;;3.10;;
18505;SDS011;9382;53.242;10.438;2023-03-14T08:57:13;6.77;;;3.20;;
18505;SDS011;9382;53.242;10.438;2023-03-14T08:59:40;6.30;;;3.17;;
18505;SDS011;9382;53.242;10.438;2023-03-14T09:02:08;5.37;;;2.77;;
18505;SDS011;9382;53.242;10.438;2023-03-14T09:04:37;6.57;;;3.17;;
18505;SDS011;9382;53.242;10.438;2023-03-14T09:07:04;5.27;;;3.10;;
18505;SDS011;9382;53.242;10.438;2023-03-14T09:09:31;5.80;;;2.80;;
18505;SDS011;9382;53.242;10.438;2023-03-14T09:11:58;8.77;;;3.20;;
18505;SDS011;9382;53.242;10.438;2023-03-14T09:14:25;4.63;;;2.50;;
18505;SDS011;9382;53.242;10.438;2023-03-14T09:16:52;4.27;;;2.10;;
18505;SDS011;9382;53.242;10.438;2023-03-14T09:19:18;4.30;;;2.33;;
18505;SDS011;9382;53.242;10.438;2023-03-14T09:21:47;4.73;;;1.90;;
18505;SDS011;9382;53.242;10.438;2023-03-14T09:24:13;7.73;;;2.30;;
18505;SDS011;9382;53.242;10.438;2023-03-14T09:26:40;7.37;;;2.67;;
18505;SDS011;9382;53.242;10.438;2023-03-14T09:29:07;5.40;;;2.17;;
18505;SDS011;9382;53.242;10.438;2023-03-14T09:31:34;2.57;;;1.83;;
18505;SDS011;9382;53.242;10.438;2023-03-14T09:34:01;3.17;;;2.00;;
18505;SDS011;9382;53.242;10.438;2023-03-14T09:36:28;7.00;;;2.17;;
18505;SDS011;9382;53.242;10.438;2023-03-14T09:38:56;7.00;;;2.13;;
18505;SDS011;9382;53.242;10.438;2023-03-14T09:41:23;3.40;;;1.90;;
18505;SDS011;9382;53.242;10.438;2023-03-14T09:43:54;4.53;;;2.03;;
18505;SDS011;9382;53.242;10.438;2023-03-14T09:46:26;5.07;;;1.87;;
18505;SDS011;9382;53.242;10.438;2023-03-14T09:48:54;3.67;;;1.60;;
18505;SDS011;9382;53.242;10.438;2023-03-14T09:51:21;1.90;;;1.70;;
18505;SDS011;9382;53.242;10.438;2023-03-14T09:53:49;6.17;;;1.70;;
18505;SDS011;9382;53.242;10.438;2023-03-14T09:56:18;3.07;;;1.57;;
18505;SDS011;9382;53.242;10.438;2023-03-14T09:58:48;4.93;;;1.40;;
18505;SDS011;9382;53.242;10.438;2023-03-14T10:01:20;3.07;;;1.47;;
18505;SDS011;9382;53.242;10.438;2023-03-14T10:03:50;3.80;;;1.50;;
18505;SDS011;9382;53.242;10.438;2023-03-14T10:06:19;2.50;;;1.40;;
18505;SDS011;9382;53.242;10.438;2023-03-14T10:08:49;2.47;;;1.40;;
18505;SDS011;9382;53.242;10.438;2023-03-14T10:11:19;3.03;;;1.37;;
18505;SDS011;9382;53.242;10.438;2023-03-14T10:13:50;1.40;;;1.30;;
18505;SDS011;9382;53.242;10.438;2023-03-14T10:16:29;1.57;;;1.33;;
18505;SDS011;9382;53.242;10.438;2023-03-14T10:19:01;2.50;;;1.50;;
18505;SDS011;9382;53.242;10.438;2023-03-14T10:21:30;4.33;;;1.80;;
18505;SDS011;9382;53.242;10.438;2023-03-14T10:24:08;2.33;;;1.30;;
18505;SDS011;9382;53.242;10.438;2023-03-14T10:26:37;1.27;;;1.17;;
18505;SDS011;9382;53.242;10.438;2023-03-14T10:29:08;2.97;;;1.50;;
18505;SDS011;9382;53.242;10.438;2023-03-14T10:31:47;2.63;;;1.20;;
18505;SDS011;9382;53.242;10.438;2023-03-14T10:34:20;2.63;;;1.30;;
18505;SDS011;9382;53.242;10.438;2023-03-14T10:36:51;1.40;;;1.20;;
18505;SDS011;9382;53.242;10.438;2023-03-14T10:39:27;2.00;;;1.20;;
18505;SDS011;9382;53.242;10.438;2023-03-14T10:42:06;1.20;;;1.10;;
18505;SDS011;9382;53.242;10.438;2023-03-14T10:44:40;1.30;;;1.30;;
18505;SDS011;9382;53.242;10.438;2023-03-14T10:47:12;1.20;;;1.20;;
18505;SDS011;9382;53.242;10.438;2023-03-14T10:49:43;1.20;;;1.20;;
18505;SDS011;9382;53.242;10.438;2023-03-14T10:52:19;3.27;;;1.40;;
18505;SDS011;9382;53.242;10.438;2023-03-14T10:54:48;1.97;;;1.40;;
18505;SDS011;9382;53.242;10.438;2023-03-14T10:57:20;1.50;;;1.40;;
18505;SDS011;9382;53.242;10.438;2023-03-14T10:59:48;2.27;;;1.80;;
18505;SDS011;9382;53.242;10.438;2023-03-14T11:02:22;2.47;;;1.70;;
18505;SDS011;9382;53.242;10.438;2023-03-14T11:05:01;2.63;;;1.27;;
18505;SDS011;9382;53.242;10.438;2023-03-14T11:07:36;1.83;;;1.20;;
18505;SDS011;9382;53.242;10.438;2023-03-14T11:10:09;1.50;;;1.40;;
18505;SDS011;9382;53.242;10.438;2023-03-14T11:12:48;2.03;;;1.63;;
18505;SDS011;9382;53.242;10.438;2023-03-14T11:15:22;2.00;;;1.80;;
18505;SDS011;9382;53.242;10.438;2023-03-14T11:18:00;2.30;;;2.20;;
18505;SDS011;9382;53.242;10.438;2023-03-14T11:20:50;3.57;;;2.40;;
18505;SDS011;9382;53.242;10.438;2023-03-14T11:23:20;3.10;;;2.80;;
18505;SDS011;9382;53.242;10.438;2023-03-14T11:25:49;3.30;;;3.00;;
18505;SDS011;9382;53.242;10.438;2023-03-14T11:28:26;4.97;;;4.07;;
18505;SDS011;9382;53.242;10.438;2023-03-14T11:30:59;5.80;;;4.60;;
18505;SDS011;9382;53.242;10.438;2023-03-14T11:33:35;5.23;;;4.73;;
18505;SDS011;9382;53.242;10.438;2023-03-14T11:36:05;6.37;;;5.23;;
18505;SDS011;9382;53.242;10.438;2023-03-14T11:38:34;7.67;;;5.77;;
18505;SDS011;9382;53.242;10.438;2023-03-14T11:41:08;7.40;;;5.63;;
18505;SDS011;9382;53.242;10.438;2023-03-14T11:43:39;7.37;;;4.53;;
18505;SDS011;9382;53.242;10.438;2023-03-14T11:46:08;2.87;;;2.40;;
18505;SDS011;9382;53.242;10.438;2023-03-14T11:48:41;3.23;;;2.07;;
18505;SDS011;9382;53.242;10.438;2023-03-14T11:51:13;3.73;;;1.90;;
18505;SDS011;9382;53.242;10.438;2023-03-14T11:53:48;1.57;;;1.50;;
18505;SDS011;9382;53.242;10.438;2023-03-14T11:56:23;1.50;;;1.40;;
18505;SDS011;9382;53.242;10.438;2023-03-14T11:58:57;4.37;;;1.50;;
18505;SDS011;9382;53.242;10.438;2023-03-14T12:01:27;1.63;;;1.40;;
18505;SDS011;9382;53.242;10.438;2023-03-14T12:04:02;1.67;;;1.30;;
18505;SDS011;9382;53.242;10.438;2023-03-14T12:06:41;1.57;;;1.23;;
18505;SDS011;9382;53.242;10.438;2023-03-14T12:09:14;1.40;;;1.10;;
18505;SDS011;9382;53.242;10.438;2023-03-14T12:11:43;1.80;;;1.50;;
18505;SDS011;9382;53.242;10.438;2023-03-14T12:14:18;2.03;;;1.50;;
18505;SDS011;9382;53.242;10.438;2023-03-14T12:16:47;2.50;;;1.43;;
18505;SDS011;9382;53.242;10.438;2023-03-14T12:19:25;1.67;;;1.30;;
18505;SDS011;9382;53.242;10.438;2023-03-14T12:21:55;1.20;;;1.20;;
18505;SDS011;9382;53.242;10.438;2023-03-14T12:24:25;1.60;;;1.33;;
18505;SDS011;9382;53.242;10.438;2023-03-14T12:26:55;2.07;;;1.47;;
18505;SDS011;9382;53.242;10.438;2023-03-14T12:29:24;4.53;;;1.70;;
18505;SDS011;9382;53.242;10.438;2023-03-14T12:32:06;1.87;;;1.67;;
18505;SDS011;9382;53.242;10.438;2023-03-14T12:34:38;3.67;;;1.57;;
18505;SDS011;9382;53.242;10.438;2023-03-14T12:40:10;7.63;;;1.93;;
18505;SDS011;9382;53.242;10.438;2023-03-14T12:42:51;5.10;;;1.67;;
18505;SDS011;9382;53.242;10.438;2023-03-14T12:45:26;4.27;;;2.10;;
18505;SDS011;9382;53.242;10.438;2023-03-14T12:48:03;4.97;;;2.00;;
18505;SDS011;9382;53.242;10.438;2023-03-14T12:50:36;5.67;;;1.90;;
18505;SDS011;9382;53.242;10.438;2023-03-14T12:53:14;7.37;;;2.00;;
18505;SDS011;9382;53.242;10.438;2023-03-14T12:56:09;4.93;;;2.00;;
18505;SDS011;9382;53.242;10.438;2023-03-14T12:58:48;6.13;;;2.20;;
18505;SDS011;9382;53.242;10.438;2023-03-14T13:01:46;7.93;;;3.03;;
18505;SDS011;9382;53.242;10.438;2023-03-14T13:04:19;9.07;;;2.30;;
18505;SDS011;9382;53.242;10.438;2023-03-14T13:06:54;8.70;;;2.57;;
18505;SDS011;9382;53.242;10.438;2023-03-14T13:12:48;9.17;;;2.67;;
18505;SDS011;9382;53.242;10.438;2023-03-14T13:15:21;5.77;;;2.20;;
18505;SDS011;9382;53.242;10.438;2023-03-14T13:17:53;8.87;;;2.13;;
18505;SDS011;9382;53.242;10.438;2023-03-14T13:20:27;9.80;;;2.07;;
18505;SDS011;9382;53.242;10.438;2023-03-14T13:22:56;6.40;;;2.20;;
18505;SDS011;9382;53.242;10.438;2023-03-14T13:25:23;5.83;;;2.30;;
18505;SDS011;9382;53.242;10.438;2023-03-14T13:27:52;11.97;;;2.20;;
18505;SDS011;9382;53.242;10.438;2023-03-14T13:30:22;7.37;;;2.27;;
18505;SDS011;9382;53.242;10.438;2023-03-14T13:32:53;7.73;;;2.17;;
18505;SDS011;9382;53.242;10.438;2023-03-14T13:35:23;8.30;;;2.10;;
18505;SDS011;9382;53.242;10.438;2023-03-14T13:37:53;8.33;;;2.37;;
18505;SDS011;9382;53.242;10.438;2023-03-14T13:40:24;7.97;;;2.53;;
18505;SDS011;9382;53.242;10.438;2023-03-14T13:43:11;10.37;;;3.07;;
18505;SDS011;9382;53.242;10.438;2023-03-14T13:45:49;6.70;;;2.40;;
18505;SDS011;9382;53.242;10.438;2023-03-14T13:48:22;13.53;;;3.70;;
18505;SDS011;9382;53.242;10.438;2023-03-14T13:50:54;11.43;;;3.13;;
18505;SDS011;9382;53.242;10.438;2023-03-14T13:53:22;9.70;;;2.70;;
18505;SDS011;9382;53.242;10.438;2023-03-14T13:55:49;12.00;;;3.40;;
18505;SDS011;9382;53.242;10.438;2023-03-14T13:58:22;14.33;;;3.93;;
18505;SDS011;9382;53.242;10.438;2023-03-14T14:01:01;12.60;;;3.30;;
18505;SDS011;9382;53.242;10.438;2023-03-14T14:03:35;16.87;;;4.30;;
18505;SDS011;9382;53.242;10.438;2023-03-14T14:06:05;16.47;;;3.40;;
18505;SDS011;9382;53.242;10.438;2023-03-14T14:08:42;18.50;;;3.07;;
18505;SDS011;9382;53.242;10.438;2023-03-14T14:11:10;14.97;;;3.47;;
18505;SDS011;9382;53.242;10.438;2023-03-14T14:13:43;10.17;;;3.20;;
18505;SDS011;9382;53.242;10.438;2023-03-14T14:16:10;12.30;;;3.20;;
18505;SDS011;9382;53.242;10.438;2023-03-14T14:18:39;11.07;;;3.30;;
18505;SDS011;9382;53.242;10.438;2023-03-14T14:21:06;10.57;;;3.00;;
18505;SDS011;9382;53.242;10.438;2023-03-14T14:23:35;7.83;;;2.40;;
18505;SDS011;9382;53.242;10.438;2023-03-14T14:26:03;9.00;;;2.77;;
18505;SDS011;9382;53.242;10.438;2023-03-14T14:28:32;7.87;;;2.50;;
18505;SDS011;9382;53.242;10.438;2023-03-14T14:31:01;11.90;;;2.83;;
18505;SDS011;9382;53.242;10.438;2023-03-14T14:33:30;9.13;;;2.63;;
18505;SDS011;9382;53.242;10.438;2023-03-14T14:36:12;13.97;;;3.00;;
18505;SDS011;9382;53.242;10.438;2023-03-14T14:38:52;11.10;;;2.90;;
18505;SDS011;9382;53.242;10.438;2023-03-14T14:41:20;12.57;;;2.83;;
18505;SDS011;9382;53.242;10.438;2023-03-14T14:43:47;12.03;;;2.50;;
18505;SDS011;9382;53.242;10.438;2023-03-14T14:46:16;13.33;;;2.90;;
18505;SDS011;9382;53.242;10.438;2023-03-14T14:48:45;12.57;;;2.97;;
18505;SDS011;9382;53.242;10.438;2023-03-14T14:51:24;12.00;;;3.00;;
18505;SDS011;9382;53.242;10.438;2023-03-14T14:54:02;8.67;;;2.90;;
18505;SDS011;9382;53.242;10.438;2023-03-14T14:56:34;12.53;;;3.03;;
18505;SDS011;9382;53.242;10.438;2023-03-14T14:59:02;10.40;;;2.90;;
18505;SDS011;9382;53.242;10.438;2023-03-14T15:01:32;12.97;;;2.90;;
18505;SDS011;9382;53.242;10.438;2023-03-14T15:04:00;9.73;;;2.90;;